sensor_id;sensor_type;location;lat;lon;timestamp;P1;durP1;ratioP1;P2;durP2;ratioP2
13404;SDS011;6773;51.192;7.024;2023-07-28T00:02:00;3.60;;;3.00;;
13404;SDS011;6773;51.192;7.024;2023-07-28T00:04:26;3.80;;;3.47;;
13404;SDS011;6773;51.192;7.024;2023-07-28T00:06:52;4.17;;;3.07;;
13404;SDS011;6773;51.192;7.024;2023-07-28T00:09:18;3.70;;;2.90;;
13404;SDS011;6773;51.192;7.024;2023-07-28T00:11:44;3.33;;;3.03;;
13404;SDS011;6773;51.192;7.024;2023-07-28T00:14:10;4.53;;;3.43;;
13404;SDS011;6773;51.192;7.024;2023-07-28T00:16:36;4.53;;;3.10;;
13404;SDS011;6773;51.192;7.024;2023-07-28T00:19:02;4.40;;;3.10;;
13404;SDS011;6773;51.192;7.024;2023-07-28T00:21:29;3.90;;;3.15;;
13404;SDS011;6773;51.192;7.024;2023-07-28T00:23:54;11.50;;;4.10;;
13404;SDS011;6773;51.192;7.024;2023-07-28T00:26:20;5.33;;;2.83;;
13404;SDS011;6773;51.192;7.024;2023-07-28T00:28:46;4.68;;;3.40;;
13404;SDS011;6773;51.192;7.024;2023-07-28T00:31:12;4.10;;;3.30;;
13404;SDS011;6773;51.192;7.024;2023-07-28T00:33:38;5.20;;;3.53;;
13404;SDS011;6773;51.192;7.024;2023-07-28T00:36:04;5.63;;;3.22;;
13404;SDS011;6773;51.192;7.024;2023-07-28T00:38:30;3.90;;;3.30;;
13404;SDS011;6773;51.192;7.024;2023-07-28T00:40:55;6.13;;;3.47;;
13404;SDS011;6773;51.192;7.024;2023-07-28T00:43:21;4.47;;;2.90;;
13404;SDS011;6773;51.192;7.024;2023-07-28T00:45:47;3.20;;;2.90;;
13404;SDS011;6773;51.192;7.024;2023-07-28T00:48:14;3.80;;;3.00;;
13404;SDS011;6773;51.192;7.024;2023-07-28T00:50:41;3.30;;;3.00;;
13404;SDS011;6773;51.192;7.024;2023-07-28T00:53:07;4.40;;;3.37;;
13404;SDS011;6773;51.192;7.024;2023-07-28T00:55:33;3.70;;;3.23;;
13404;SDS011;6773;51.192;7.024;2023-07-28T00:57:59;3.97;;;3.20;;
13404;SDS011;6773;51.192;7.024;2023-07-28T01:00:25;3.65;;;3.35;;
13404;SDS011;6773;51.192;7.024;2023-07-28T01:02:51;4.13;;;3.23;;
13404;SDS011;6773;51.192;7.024;2023-07-28T01:05:17;3.63;;;3.20;;
13404;SDS011;6773;51.192;7.024;2023-07-28T01:07:47;4.80;;;3.33;;
13404;SDS011;6773;51.192;7.024;2023-07-28T01:10:35;6.78;;;3.55;;
13404;SDS011;6773;51.192;7.024;2023-07-28T01:13:00;6.47;;;3.72;;
13404;SDS011;6773;51.192;7.024;2023-07-28T01:15:26;4.03;;;3.63;;
13404;SDS011;6773;51.192;7.024;2023-07-28T01:17:52;4.40;;;4.00;;
13404;SDS011;6773;51.192;7.024;2023-07-28T01:20:18;5.85;;;4.13;;
13404;SDS011;6773;51.192;7.024;2023-07-28T01:25:36;6.00;;;4.70;;
13404;SDS011;6773;51.192;7.024;2023-07-28T01:28:06;8.93;;;4.07;;
13404;SDS011;6773;51.192;7.024;2023-07-28T01:30:32;5.18;;;4.20;;
13404;SDS011;6773;51.192;7.024;2023-07-28T01:32:58;4.97;;;4.05;;
13404;SDS011;6773;51.192;7.024;2023-07-28T01:35:25;7.10;;;4.47;;
13404;SDS011;6773;51.192;7.024;2023-07-28T01:37:51;6.03;;;4.28;;
13404;SDS011;6773;51.192;7.024;2023-07-28T01:40:17;6.18;;;4.63;;
13404;SDS011;6773;51.192;7.024;2023-07-28T01:42:43;5.57;;;4.87;;
13404;SDS011;6773;51.192;7.024;2023-07-28T01:45:09;5.60;;;5.03;;
13404;SDS011;6773;51.192;7.024;2023-07-28T01:47:35;7.28;;;5.35;;
13404;SDS011;6773;51.192;7.024;2023-07-28T01:50:01;8.13;;;6.00;;
13404;SDS011;6773;51.192;7.024;2023-07-28T01:52:27;6.63;;;5.60;;
13404;SDS011;6773;51.192;7.024;2023-07-28T01:54:53;7.45;;;6.60;;
13404;SDS011;6773;51.192;7.024;2023-07-28T01:57:19;8.85;;;5.65;;
13404;SDS011;6773;51.192;7.024;2023-07-28T01:59:45;7.28;;;6.18;;
13404;SDS011;6773;51.192;7.024;2023-07-28T02:02:11;9.33;;;5.90;;
13404;SDS011;6773;51.192;7.024;2023-07-28T02:04:36;10.77;;;6.63;;
13404;SDS011;6773;51.192;7.024;2023-07-28T02:07:02;12.40;;;6.57;;
13404;SDS011;6773;51.192;7.024;2023-07-28T02:09:28;13.07;;;7.07;;
13404;SDS011;6773;51.192;7.024;2023-07-28T02:11:54;8.35;;;7.00;;
13404;SDS011;6773;51.192;7.024;2023-07-28T02:14:20;7.80;;;6.13;;
13404;SDS011;6773;51.192;7.024;2023-07-28T02:16:46;9.03;;;6.40;;
13404;SDS011;6773;51.192;7.024;2023-07-28T02:19:12;11.05;;;7.32;;
13404;SDS011;6773;51.192;7.024;2023-07-28T02:21:38;11.33;;;6.67;;
13404;SDS011;6773;51.192;7.024;2023-07-28T02:24:04;14.77;;;6.63;;
13404;SDS011;6773;51.192;7.024;2023-07-28T02:26:30;14.57;;;7.10;;
13404;SDS011;6773;51.192;7.024;2023-07-28T02:28:56;14.27;;;6.73;;
13404;SDS011;6773;51.192;7.024;2023-07-28T02:31:21;57.95;;;10.13;;
13404;SDS011;6773;51.192;7.024;2023-07-28T02:33:47;15.85;;;6.53;;
13404;SDS011;6773;51.192;7.024;2023-07-28T02:36:13;15.63;;;7.33;;
13404;SDS011;6773;51.192;7.024;2023-07-28T02:38:39;28.30;;;7.33;;
13404;SDS011;6773;51.192;7.024;2023-07-28T02:41:05;45.63;;;8.10;;
13404;SDS011;6773;51.192;7.024;2023-07-28T02:43:32;9.75;;;6.38;;
13404;SDS011;6773;51.192;7.024;2023-07-28T02:45:57;16.97;;;5.90;;
13404;SDS011;6773;51.192;7.024;2023-07-28T02:48:23;59.03;;;10.63;;
13404;SDS011;6773;51.192;7.024;2023-07-28T02:50:50;85.07;;;10.80;;
13404;SDS011;6773;51.192;7.024;2023-07-28T02:53:16;65.50;;;10.33;;
13404;SDS011;6773;51.192;7.024;2023-07-28T02:55:42;102.90;;;10.93;;
13404;SDS011;6773;51.192;7.024;2023-07-28T02:58:08;8.98;;;6.40;;
13404;SDS011;6773;51.192;7.024;2023-07-28T03:00:38;10.40;;;6.23;;
13404;SDS011;6773;51.192;7.024;2023-07-28T03:03:04;12.10;;;7.03;;
13404;SDS011;6773;51.192;7.024;2023-07-28T03:05:31;7.40;;;6.07;;
13404;SDS011;6773;51.192;7.024;2023-07-28T03:07:57;38.92;;;7.85;;
13404;SDS011;6773;51.192;7.024;2023-07-28T03:10:23;46.90;;;8.80;;
13404;SDS011;6773;51.192;7.024;2023-07-28T03:12:49;14.63;;;7.30;;
13404;SDS011;6773;51.192;7.024;2023-07-28T03:15:15;46.60;;;8.75;;
13404;SDS011;6773;51.192;7.024;2023-07-28T03:17:41;31.67;;;8.30;;
13404;SDS011;6773;51.192;7.024;2023-07-28T03:20:07;24.30;;;7.57;;
13404;SDS011;6773;51.192;7.024;2023-07-28T03:22:33;14.77;;;7.07;;
13404;SDS011;6773;51.192;7.024;2023-07-28T03:24:58;128.52;;;12.85;;
13404;SDS011;6773;51.192;7.024;2023-07-28T03:27:24;158.52;;;14.00;;
13404;SDS011;6773;51.192;7.024;2023-07-28T03:29:51;32.37;;;7.70;;
13404;SDS011;6773;51.192;7.024;2023-07-28T03:32:16;23.85;;;8.52;;
13404;SDS011;6773;51.192;7.024;2023-07-28T03:34:42;20.33;;;6.77;;
13404;SDS011;6773;51.192;7.024;2023-07-28T03:37:08;132.27;;;15.07;;
13404;SDS011;6773;51.192;7.024;2023-07-28T03:39:34;37.10;;;7.95;;
13404;SDS011;6773;51.192;7.024;2023-07-28T03:42:00;105.88;;;10.40;;
13404;SDS011;6773;51.192;7.024;2023-07-28T03:44:26;39.37;;;7.77;;
13404;SDS011;6773;51.192;7.024;2023-07-28T03:46:52;38.90;;;7.32;;
13404;SDS011;6773;51.192;7.024;2023-07-28T03:49:18;44.38;;;7.63;;
13404;SDS011;6773;51.192;7.024;2023-07-28T03:51:44;45.40;;;7.85;;
13404;SDS011;6773;51.192;7.024;2023-07-28T03:54:10;60.05;;;8.15;;
13404;SDS011;6773;51.192;7.024;2023-07-28T03:56:36;11.43;;;6.15;;
13404;SDS011;6773;51.192;7.024;2023-07-28T03:59:02;44.20;;;8.13;;
13404;SDS011;6773;51.192;7.024;2023-07-28T04:01:28;59.17;;;7.90;;
13404;SDS011;6773;51.192;7.024;2023-07-28T04:03:54;41.47;;;7.80;;
13404;SDS011;6773;51.192;7.024;2023-07-28T04:06:19;22.35;;;7.10;;
13404;SDS011;6773;51.192;7.024;2023-07-28T04:09:04;8.87;;;5.27;;
13404;SDS011;6773;51.192;7.024;2023-07-28T04:11:30;19.47;;;6.33;;
13404;SDS011;6773;51.192;7.024;2023-07-28T04:13:55;36.70;;;6.77;;
13404;SDS011;6773;51.192;7.024;2023-07-28T04:16:21;78.57;;;9.40;;
13404;SDS011;6773;51.192;7.024;2023-07-28T04:18:47;7.78;;;5.45;;
13404;SDS011;6773;51.192;7.024;2023-07-28T04:21:13;7.67;;;5.43;;
13404;SDS011;6773;51.192;7.024;2023-07-28T04:23:39;6.23;;;4.90;;
13404;SDS011;6773;51.192;7.024;2023-07-28T04:26:06;14.80;;;5.70;;
13404;SDS011;6773;51.192;7.024;2023-07-28T04:28:31;11.40;;;5.43;;
13404;SDS011;6773;51.192;7.024;2023-07-28T04:30:57;10.40;;;5.23;;
13404;SDS011;6773;51.192;7.024;2023-07-28T04:33:23;27.30;;;5.57;;
13404;SDS011;6773;51.192;7.024;2023-07-28T04:35:49;30.33;;;6.45;;
13404;SDS011;6773;51.192;7.024;2023-07-28T04:38:15;25.20;;;5.72;;
13404;SDS011;6773;51.192;7.024;2023-07-28T04:40:43;22.52;;;5.05;;
13404;SDS011;6773;51.192;7.024;2023-07-28T04:43:09;7.05;;;4.65;;
13404;SDS011;6773;51.192;7.024;2023-07-28T04:45:34;49.30;;;6.65;;
13404;SDS011;6773;51.192;7.024;2023-07-28T04:48:00;16.85;;;5.00;;
13404;SDS011;6773;51.192;7.024;2023-07-28T04:50:26;14.88;;;4.85;;
13404;SDS011;6773;51.192;7.024;2023-07-28T04:52:52;21.15;;;5.53;;
13404;SDS011;6773;51.192;7.024;2023-07-28T04:55:17;4.75;;;3.90;;
13404;SDS011;6773;51.192;7.024;2023-07-28T04:57:43;8.75;;;4.57;;
13404;SDS011;6773;51.192;7.024;2023-07-28T05:00:10;76.13;;;7.13;;
13404;SDS011;6773;51.192;7.024;2023-07-28T05:02:36;10.07;;;4.65;;
13404;SDS011;6773;51.192;7.024;2023-07-28T05:05:02;38.42;;;5.60;;
13404;SDS011;6773;51.192;7.024;2023-07-28T05:07:28;18.60;;;4.80;;
13404;SDS011;6773;51.192;7.024;2023-07-28T05:09:54;42.42;;;6.32;;
13404;SDS011;6773;51.192;7.024;2023-07-28T05:12:20;64.30;;;6.95;;
13404;SDS011;6773;51.192;7.024;2023-07-28T05:14:46;36.20;;;6.15;;
13404;SDS011;6773;51.192;7.024;2023-07-28T05:17:12;21.30;;;5.23;;
13404;SDS011;6773;51.192;7.024;2023-07-28T05:19:38;19.50;;;5.73;;
13404;SDS011;6773;51.192;7.024;2023-07-28T05:22:04;10.55;;;5.95;;
13404;SDS011;6773;51.192;7.024;2023-07-28T05:24:31;10.07;;;5.57;;
13404;SDS011;6773;51.192;7.024;2023-07-28T05:26:58;58.53;;;8.10;;
13404;SDS011;6773;51.192;7.024;2023-07-28T05:29:24;21.63;;;7.20;;
13404;SDS011;6773;51.192;7.024;2023-07-28T05:31:50;16.13;;;5.80;;
13404;SDS011;6773;51.192;7.024;2023-07-28T05:34:16;9.65;;;5.57;;
13404;SDS011;6773;51.192;7.024;2023-07-28T05:36:42;14.38;;;5.78;;
13404;SDS011;6773;51.192;7.024;2023-07-28T05:39:09;70.50;;;7.50;;
13404;SDS011;6773;51.192;7.024;2023-07-28T05:41:36;7.85;;;5.53;;
13404;SDS011;6773;51.192;7.024;2023-07-28T05:44:02;13.95;;;6.05;;
13404;SDS011;6773;51.192;7.024;2023-07-28T05:46:28;28.75;;;6.78;;
13404;SDS011;6773;51.192;7.024;2023-07-28T05:48:55;48.07;;;7.20;;
13404;SDS011;6773;51.192;7.024;2023-07-28T05:51:21;52.38;;;6.68;;
13404;SDS011;6773;51.192;7.024;2023-07-28T05:53:48;108.35;;;8.95;;
13404;SDS011;6773;51.192;7.024;2023-07-28T05:56:15;90.25;;;9.98;;
13404;SDS011;6773;51.192;7.024;2023-07-28T05:58:41;39.45;;;7.30;;
13404;SDS011;6773;51.192;7.024;2023-07-28T06:01:07;33.03;;;8.82;;
13404;SDS011;6773;51.192;7.024;2023-07-28T06:03:33;69.40;;;11.60;;
13404;SDS011;6773;51.192;7.024;2023-07-28T06:05:59;85.77;;;9.97;;
13404;SDS011;6773;51.192;7.024;2023-07-28T06:08:25;29.10;;;8.90;;
13404;SDS011;6773;51.192;7.024;2023-07-28T06:10:51;90.07;;;11.18;;
13404;SDS011;6773;51.192;7.024;2023-07-28T06:13:17;22.38;;;8.68;;
13404;SDS011;6773;51.192;7.024;2023-07-28T06:15:43;19.10;;;8.10;;
13404;SDS011;6773;51.192;7.024;2023-07-28T06:18:09;15.52;;;8.75;;
13404;SDS011;6773;51.192;7.024;2023-07-28T06:20:35;26.63;;;8.97;;
13404;SDS011;6773;51.192;7.024;2023-07-28T06:23:01;46.60;;;11.43;;
13404;SDS011;6773;51.192;7.024;2023-07-28T06:25:27;34.83;;;10.80;;
13404;SDS011;6773;51.192;7.024;2023-07-28T06:27:53;20.98;;;9.85;;
13404;SDS011;6773;51.192;7.024;2023-07-28T06:30:19;19.70;;;10.68;;
13404;SDS011;6773;51.192;7.024;2023-07-28T06:32:45;24.33;;;10.20;;
13404;SDS011;6773;51.192;7.024;2023-07-28T06:35:11;19.60;;;9.13;;
13404;SDS011;6773;51.192;7.024;2023-07-28T06:37:37;13.68;;;8.27;;
13404;SDS011;6773;51.192;7.024;2023-07-28T06:40:05;17.35;;;8.75;;
13404;SDS011;6773;51.192;7.024;2023-07-28T06:42:32;51.85;;;11.18;;
13404;SDS011;6773;51.192;7.024;2023-07-28T06:44:59;33.30;;;10.23;;
13404;SDS011;6773;51.192;7.024;2023-07-28T06:47:25;40.45;;;10.05;;
13404;SDS011;6773;51.192;7.024;2023-07-28T06:49:50;49.13;;;10.45;;
13404;SDS011;6773;51.192;7.024;2023-07-28T06:52:16;49.78;;;11.60;;
13404;SDS011;6773;51.192;7.024;2023-07-28T06:54:41;79.85;;;12.88;;
13404;SDS011;6773;51.192;7.024;2023-07-28T06:57:08;40.78;;;11.30;;
13404;SDS011;6773;51.192;7.024;2023-07-28T06:59:34;30.63;;;10.90;;
13404;SDS011;6773;51.192;7.024;2023-07-28T07:02:00;32.60;;;11.30;;
13404;SDS011;6773;51.192;7.024;2023-07-28T07:04:26;23.60;;;8.98;;
13404;SDS011;6773;51.192;7.024;2023-07-28T07:06:52;25.90;;;9.25;;
13404;SDS011;6773;51.192;7.024;2023-07-28T07:09:18;24.83;;;8.55;;
13404;SDS011;6773;51.192;7.024;2023-07-28T07:11:45;23.63;;;8.27;;
13404;SDS011;6773;51.192;7.024;2023-07-28T07:14:10;12.70;;;7.15;;
13404;SDS011;6773;51.192;7.024;2023-07-28T07:16:36;13.50;;;6.88;;
13404;SDS011;6773;51.192;7.024;2023-07-28T07:19:02;18.75;;;6.72;;
13404;SDS011;6773;51.192;7.024;2023-07-28T07:21:28;15.45;;;7.18;;
13404;SDS011;6773;51.192;7.024;2023-07-28T07:23:54;29.98;;;6.90;;
13404;SDS011;6773;51.192;7.024;2023-07-28T07:26:20;15.95;;;6.13;;
13404;SDS011;6773;51.192;7.024;2023-07-28T07:28:46;12.98;;;6.43;;
13404;SDS011;6773;51.192;7.024;2023-07-28T07:31:13;9.73;;;5.57;;
13404;SDS011;6773;51.192;7.024;2023-07-28T07:33:39;11.80;;;5.90;;
13404;SDS011;6773;51.192;7.024;2023-07-28T07:36:05;11.43;;;5.43;;
13404;SDS011;6773;51.192;7.024;2023-07-28T07:38:36;16.00;;;6.57;;
13404;SDS011;6773;51.192;7.024;2023-07-28T07:41:02;12.95;;;6.07;;
13404;SDS011;6773;51.192;7.024;2023-07-28T07:43:29;16.80;;;6.93;;
13404;SDS011;6773;51.192;7.024;2023-07-28T07:45:55;15.70;;;7.38;;
13404;SDS011;6773;51.192;7.024;2023-07-28T07:48:21;19.33;;;7.70;;
13404;SDS011;6773;51.192;7.024;2023-07-28T07:50:46;16.67;;;8.40;;
13404;SDS011;6773;51.192;7.024;2023-07-28T07:53:12;19.70;;;8.45;;
13404;SDS011;6773;51.192;7.024;2023-07-28T07:55:38;19.30;;;8.20;;
13404;SDS011;6773;51.192;7.024;2023-07-28T07:58:04;25.02;;;10.18;;
13404;SDS011;6773;51.192;7.024;2023-07-28T08:00:30;18.63;;;8.50;;
13404;SDS011;6773;51.192;7.024;2023-07-28T08:02:56;17.77;;;7.88;;
13404;SDS011;6773;51.192;7.024;2023-07-28T08:05:22;15.70;;;8.27;;
13404;SDS011;6773;51.192;7.024;2023-07-28T08:07:48;19.38;;;8.68;;
13404;SDS011;6773;51.192;7.024;2023-07-28T08:10:15;21.20;;;9.27;;
13404;SDS011;6773;51.192;7.024;2023-07-28T08:12:42;17.17;;;8.07;;
13404;SDS011;6773;51.192;7.024;2023-07-28T08:15:09;20.73;;;9.57;;
13404;SDS011;6773;51.192;7.024;2023-07-28T08:17:36;15.57;;;8.98;;
13404;SDS011;6773;51.192;7.024;2023-07-28T08:20:02;18.80;;;8.85;;
13404;SDS011;6773;51.192;7.024;2023-07-28T08:22:28;17.08;;;8.30;;
13404;SDS011;6773;51.192;7.024;2023-07-28T08:24:54;13.30;;;8.25;;
13404;SDS011;6773;51.192;7.024;2023-07-28T08:27:20;17.92;;;8.98;;
13404;SDS011;6773;51.192;7.024;2023-07-28T08:29:46;18.67;;;9.02;;
13404;SDS011;6773;51.192;7.024;2023-07-28T08:32:12;18.67;;;9.48;;
13404;SDS011;6773;51.192;7.024;2023-07-28T08:34:37;14.30;;;8.68;;
13404;SDS011;6773;51.192;7.024;2023-07-28T08:37:03;19.98;;;9.43;;
13404;SDS011;6773;51.192;7.024;2023-07-28T08:39:30;17.67;;;9.23;;
13404;SDS011;6773;51.192;7.024;2023-07-28T08:42:02;16.65;;;9.30;;
13404;SDS011;6773;51.192;7.024;2023-07-28T08:44:32;18.42;;;9.50;;
13404;SDS011;6773;51.192;7.024;2023-07-28T08:46:59;20.90;;;10.18;;
13404;SDS011;6773;51.192;7.024;2023-07-28T08:49:25;19.85;;;9.85;;
13404;SDS011;6773;51.192;7.024;2023-07-28T08:51:51;21.23;;;11.88;;
13404;SDS011;6773;51.192;7.024;2023-07-28T08:54:17;18.88;;;10.88;;
13404;SDS011;6773;51.192;7.024;2023-07-28T08:56:43;18.13;;;10.30;;
13404;SDS011;6773;51.192;7.024;2023-07-28T08:59:09;18.20;;;10.93;;
13404;SDS011;6773;51.192;7.024;2023-07-28T09:01:39;21.00;;;11.05;;
13404;SDS011;6773;51.192;7.024;2023-07-28T09:04:11;19.60;;;11.38;;
13404;SDS011;6773;51.192;7.024;2023-07-28T09:06:38;16.50;;;10.40;;
13404;SDS011;6773;51.192;7.024;2023-07-28T09:09:07;14.45;;;10.02;;
13404;SDS011;6773;51.192;7.024;2023-07-28T09:11:33;17.88;;;10.60;;
13404;SDS011;6773;51.192;7.024;2023-07-28T09:13:59;15.75;;;10.00;;
13404;SDS011;6773;51.192;7.024;2023-07-28T09:16:26;14.18;;;9.45;;
13404;SDS011;6773;51.192;7.024;2023-07-28T09:19:15;13.20;;;8.90;;
13404;SDS011;6773;51.192;7.024;2023-07-28T09:21:43;11.20;;;8.35;;
13404;SDS011;6773;51.192;7.024;2023-07-28T09:24:12;10.60;;;8.02;;
13404;SDS011;6773;51.192;7.024;2023-07-28T09:26:39;11.77;;;8.75;;
13404;SDS011;6773;51.192;7.024;2023-07-28T09:29:19;12.02;;;8.80;;
13404;SDS011;6773;51.192;7.024;2023-07-28T09:31:46;10.85;;;7.75;;
13404;SDS011;6773;51.192;7.024;2023-07-28T09:34:13;9.80;;;7.55;;
13404;SDS011;6773;51.192;7.024;2023-07-28T09:36:48;14.30;;;8.15;;
13404;SDS011;6773;51.192;7.024;2023-07-28T09:39:14;9.93;;;7.18;;
13404;SDS011;6773;51.192;7.024;2023-07-28T09:41:41;9.32;;;7.30;;
13404;SDS011;6773;51.192;7.024;2023-07-28T09:44:09;8.18;;;6.80;;
13404;SDS011;6773;51.192;7.024;2023-07-28T09:46:35;7.35;;;6.65;;
13404;SDS011;6773;51.192;7.024;2023-07-28T09:49:07;9.10;;;7.10;;
13404;SDS011;6773;51.192;7.024;2023-07-28T09:51:37;7.97;;;6.65;;
13404;SDS011;6773;51.192;7.024;2023-07-28T09:54:05;6.97;;;5.82;;
13404;SDS011;6773;51.192;7.024;2023-07-28T09:56:31;6.50;;;5.85;;
13404;SDS011;6773;51.192;7.024;2023-07-28T09:58:58;6.80;;;5.80;;
13404;SDS011;6773;51.192;7.024;2023-07-28T10:01:24;6.63;;;5.90;;
13404;SDS011;6773;51.192;7.024;2023-07-28T10:03:51;6.05;;;5.45;;
13404;SDS011;6773;51.192;7.024;2023-07-28T10:06:17;6.57;;;5.32;;
13404;SDS011;6773;51.192;7.024;2023-07-28T10:08:45;5.95;;;5.35;;
13404;SDS011;6773;51.192;7.024;2023-07-28T10:11:17;5.72;;;5.22;;
13404;SDS011;6773;51.192;7.024;2023-07-28T10:13:44;4.88;;;4.40;;
13404;SDS011;6773;51.192;7.024;2023-07-28T10:16:12;5.30;;;4.80;;
13404;SDS011;6773;51.192;7.024;2023-07-28T10:18:46;5.72;;;4.97;;
13404;SDS011;6773;51.192;7.024;2023-07-28T10:21:17;5.47;;;4.68;;
13404;SDS011;6773;51.192;7.024;2023-07-28T10:23:43;5.28;;;4.78;;
13404;SDS011;6773;51.192;7.024;2023-07-28T10:26:09;4.88;;;4.47;;
13404;SDS011;6773;51.192;7.024;2023-07-28T10:28:39;5.57;;;4.93;;
13404;SDS011;6773;51.192;7.024;2023-07-28T10:31:08;6.85;;;3.90;;
13404;SDS011;6773;51.192;7.024;2023-07-28T10:33:39;4.40;;;3.60;;
13404;SDS011;6773;51.192;7.024;2023-07-28T10:36:20;4.72;;;3.65;;
13404;SDS011;6773;51.192;7.024;2023-07-28T10:39:12;3.55;;;3.30;;
13404;SDS011;6773;51.192;7.024;2023-07-28T10:41:40;5.00;;;3.25;;
13404;SDS011;6773;51.192;7.024;2023-07-28T10:44:25;3.63;;;3.30;;
13404;SDS011;6773;51.192;7.024;2023-07-28T10:46:51;3.88;;;3.58;;
13404;SDS011;6773;51.192;7.024;2023-07-28T10:49:17;3.80;;;3.40;;
13404;SDS011;6773;51.192;7.024;2023-07-28T10:51:43;5.10;;;3.35;;
13404;SDS011;6773;51.192;7.024;2023-07-28T10:54:09;3.25;;;3.00;;
13404;SDS011;6773;51.192;7.024;2023-07-28T10:56:36;4.53;;;3.70;;
13404;SDS011;6773;51.192;7.024;2023-07-28T10:59:03;4.00;;;3.70;;
13404;SDS011;6773;51.192;7.024;2023-07-28T11:01:35;3.97;;;3.67;;
13404;SDS011;6773;51.192;7.024;2023-07-28T11:04:17;4.43;;;3.45;;
13404;SDS011;6773;51.192;7.024;2023-07-28T11:06:44;2.95;;;2.75;;
13404;SDS011;6773;51.192;7.024;2023-07-28T11:09:11;2.88;;;2.67;;
13404;SDS011;6773;51.192;7.024;2023-07-28T11:11:38;3.22;;;2.92;;
13404;SDS011;6773;51.192;7.024;2023-07-28T11:14:07;3.17;;;2.88;;
13404;SDS011;6773;51.192;7.024;2023-07-28T11:16:34;3.30;;;3.10;;
13404;SDS011;6773;51.192;7.024;2023-07-28T11:19:08;3.00;;;2.67;;
13404;SDS011;6773;51.192;7.024;2023-07-28T11:21:38;4.05;;;3.45;;
13404;SDS011;6773;51.192;7.024;2023-07-28T11:24:08;3.00;;;2.80;;
13404;SDS011;6773;51.192;7.024;2023-07-28T11:26:42;4.53;;;2.47;;
13404;SDS011;6773;51.192;7.024;2023-07-28T11:29:11;2.60;;;2.40;;
13404;SDS011;6773;51.192;7.024;2023-07-28T11:31:36;4.90;;;2.60;;
13404;SDS011;6773;51.192;7.024;2023-07-28T11:34:02;2.33;;;2.13;;
13404;SDS011;6773;51.192;7.024;2023-07-28T11:36:29;2.35;;;2.22;;
13404;SDS011;6773;51.192;7.024;2023-07-28T11:38:59;2.22;;;2.03;;
13404;SDS011;6773;51.192;7.024;2023-07-28T11:41:25;2.08;;;1.88;;
13404;SDS011;6773;51.192;7.024;2023-07-28T11:43:51;1.60;;;1.50;;
13404;SDS011;6773;51.192;7.024;2023-07-28T11:46:37;2.38;;;1.70;;
13404;SDS011;6773;51.192;7.024;2023-07-28T11:49:09;2.33;;;1.52;;
13404;SDS011;6773;51.192;7.024;2023-07-28T11:51:46;2.20;;;1.90;;
13404;SDS011;6773;51.192;7.024;2023-07-28T11:54:14;1.80;;;1.70;;
13404;SDS011;6773;51.192;7.024;2023-07-28T11:56:44;2.05;;;1.45;;
13404;SDS011;6773;51.192;7.024;2023-07-28T11:59:11;1.80;;;1.70;;
13404;SDS011;6773;51.192;7.024;2023-07-28T12:01:51;1.85;;;1.75;;
13404;SDS011;6773;51.192;7.024;2023-07-28T12:04:27;1.60;;;1.50;;
13404;SDS011;6773;51.192;7.024;2023-07-28T12:07:00;1.67;;;1.58;;
13404;SDS011;6773;51.192;7.024;2023-07-28T12:12:11;1.70;;;1.60;;
13404;SDS011;6773;51.192;7.024;2023-07-28T12:14:37;1.30;;;1.30;;
13404;SDS011;6773;51.192;7.024;2023-07-28T12:17:11;1.50;;;1.40;;
13404;SDS011;6773;51.192;7.024;2023-07-28T12:19:41;2.28;;;1.50;;
13404;SDS011;6773;51.192;7.024;2023-07-28T12:22:07;1.63;;;1.40;;
13404;SDS011;6773;51.192;7.024;2023-07-28T12:24:33;1.63;;;1.52;;
13404;SDS011;6773;51.192;7.024;2023-07-28T12:26:59;2.50;;;1.35;;
13404;SDS011;6773;51.192;7.024;2023-07-28T12:29:25;1.52;;;1.42;;
13404;SDS011;6773;51.192;7.024;2023-07-28T12:31:51;1.50;;;1.40;;
13404;SDS011;6773;51.192;7.024;2023-07-28T12:34:17;2.60;;;1.50;;
13404;SDS011;6773;51.192;7.024;2023-07-28T12:36:43;1.50;;;1.40;;
13404;SDS011;6773;51.192;7.024;2023-07-28T12:39:09;1.60;;;1.50;;
13404;SDS011;6773;51.192;7.024;2023-07-28T12:41:35;1.50;;;1.40;;
13404;SDS011;6773;51.192;7.024;2023-07-28T12:44:01;2.60;;;1.50;;
13404;SDS011;6773;51.192;7.024;2023-07-28T12:46:27;1.50;;;1.40;;
13404;SDS011;6773;51.192;7.024;2023-07-28T12:48:54;1.50;;;1.40;;
13404;SDS011;6773;51.192;7.024;2023-07-28T12:51:20;1.50;;;1.40;;
13404;SDS011;6773;51.192;7.024;2023-07-28T12:53:46;1.67;;;1.58;;
13404;SDS011;6773;51.192;7.024;2023-07-28T12:56:12;3.95;;;1.40;;
13404;SDS011;6773;51.192;7.024;2023-07-28T12:58:38;1.25;;;1.15;;
13404;SDS011;6773;51.192;7.024;2023-07-28T13:01:04;1.50;;;1.40;;
13404;SDS011;6773;51.192;7.024;2023-07-28T13:03:30;2.08;;;1.10;;
13404;SDS011;6773;51.192;7.024;2023-07-28T13:05:56;1.83;;;1.08;;
13404;SDS011;6773;51.192;7.024;2023-07-28T13:08:22;1.10;;;1.10;;
13404;SDS011;6773;51.192;7.024;2023-07-28T13:10:48;1.10;;;1.10;;
13404;SDS011;6773;51.192;7.024;2023-07-28T13:13:14;1.30;;;1.20;;
13404;SDS011;6773;51.192;7.024;2023-07-28T13:15:40;1.13;;;1.08;;
13404;SDS011;6773;51.192;7.024;2023-07-28T13:18:06;1.10;;;1.10;;
13404;SDS011;6773;51.192;7.024;2023-07-28T13:20:32;1.33;;;1.23;;
13404;SDS011;6773;51.192;7.024;2023-07-28T13:22:58;1.30;;;1.20;;
13404;SDS011;6773;51.192;7.024;2023-07-28T13:25:24;1.38;;;1.27;;
13404;SDS011;6773;51.192;7.024;2023-07-28T13:27:50;1.80;;;1.20;;
13404;SDS011;6773;51.192;7.024;2023-07-28T13:30:16;1.17;;;1.17;;
13404;SDS011;6773;51.192;7.024;2023-07-28T13:32:42;1.55;;;1.45;;
13404;SDS011;6773;51.192;7.024;2023-07-28T13:35:08;1.60;;;1.45;;
13404;SDS011;6773;51.192;7.024;2023-07-28T13:37:34;2.20;;;1.80;;
13404;SDS011;6773;51.192;7.024;2023-07-28T13:40:00;1.67;;;1.52;;
13404;SDS011;6773;51.192;7.024;2023-07-28T13:42:26;3.05;;;1.55;;
13404;SDS011;6773;51.192;7.024;2023-07-28T13:44:52;2.65;;;1.80;;
13404;SDS011;6773;51.192;7.024;2023-07-28T13:47:18;1.58;;;1.48;;
13404;SDS011;6773;51.192;7.024;2023-07-28T13:49:44;3.38;;;2.20;;
13404;SDS011;6773;51.192;7.024;2023-07-28T13:52:10;1.70;;;1.60;;
13404;SDS011;6773;51.192;7.024;2023-07-28T13:54:36;1.70;;;1.60;;
13404;SDS011;6773;51.192;7.024;2023-07-28T13:57:02;2.15;;;1.60;;
13404;SDS011;6773;51.192;7.024;2023-07-28T13:59:28;1.95;;;1.60;;
13404;SDS011;6773;51.192;7.024;2023-07-28T14:01:54;1.73;;;1.60;;
13404;SDS011;6773;51.192;7.024;2023-07-28T14:04:21;1.92;;;1.50;;
13404;SDS011;6773;51.192;7.024;2023-07-28T14:06:47;1.65;;;1.55;;
13404;SDS011;6773;51.192;7.024;2023-07-28T14:09:12;1.90;;;1.70;;
13404;SDS011;6773;51.192;7.024;2023-07-28T14:11:39;2.88;;;1.50;;
13404;SDS011;6773;51.192;7.024;2023-07-28T14:14:05;1.63;;;1.40;;
13404;SDS011;6773;51.192;7.024;2023-07-28T14:16:31;1.10;;;1.10;;
13404;SDS011;6773;51.192;7.024;2023-07-28T14:18:57;1.35;;;1.30;;
13404;SDS011;6773;51.192;7.024;2023-07-28T14:21:22;1.67;;;1.40;;
13404;SDS011;6773;51.192;7.024;2023-07-28T14:23:48;1.73;;;1.40;;
13404;SDS011;6773;51.192;7.024;2023-07-28T14:26:14;1.60;;;1.50;;
13404;SDS011;6773;51.192;7.024;2023-07-28T14:28:42;3.25;;;1.50;;
13404;SDS011;6773;51.192;7.024;2023-07-28T14:31:08;1.70;;;1.60;;
13404;SDS011;6773;51.192;7.024;2023-07-28T14:33:33;1.77;;;1.67;;
13404;SDS011;6773;51.192;7.024;2023-07-28T14:35:59;2.20;;;1.60;;
13404;SDS011;6773;51.192;7.024;2023-07-28T14:38:25;2.20;;;1.52;;
13404;SDS011;6773;51.192;7.024;2023-07-28T14:40:51;2.03;;;1.80;;
13404;SDS011;6773;51.192;7.024;2023-07-28T14:43:17;1.80;;;1.70;;
13404;SDS011;6773;51.192;7.024;2023-07-28T14:45:44;1.95;;;1.63;;
13404;SDS011;6773;51.192;7.024;2023-07-28T14:48:10;2.80;;;1.73;;
13404;SDS011;6773;51.192;7.024;2023-07-28T14:50:36;1.85;;;1.67;;
13404;SDS011;6773;51.192;7.024;2023-07-28T14:53:02;1.90;;;1.80;;
13404;SDS011;6773;51.192;7.024;2023-07-28T14:55:48;2.45;;;2.03;;
13404;SDS011;6773;51.192;7.024;2023-07-28T14:58:14;3.72;;;2.15;;